createdAt,value
2019-02-14T00:00:15.176Z,1018.71
2019-02-14T00:01:15.165Z,1018.71
2019-02-14T00:02:15.154Z,1018.81
2019-02-14T00:03:15.144Z,1018.83
2019-02-14T00:04:15.160Z,1018.88
2019-02-14T00:05:16.667Z,1018.81
2019-02-14T00:06:15.116Z,1018.74
2019-02-14T00:07:15.104Z,1018.81
2019-02-14T00:08:15.092Z,1018.86
2019-02-14T00:09:15.108Z,1018.84
2019-02-14T00:10:15.069Z,1018.75
2019-02-14T00:11:15.069Z,1018.77
2019-02-14T00:12:15.048Z,1018.67
2019-02-14T00:13:15.041Z,1018.67
2019-02-14T00:14:15.051Z,1018.73
2019-02-14T00:15:15.019Z,1018.74
2019-02-14T00:16:15.008Z,1018.69
2019-02-14T00:17:15.018Z,1018.63
2019-02-14T00:18:14.986Z,1018.57
2019-02-14T00:19:15.003Z,1018.52
2019-02-14T00:20:14.964Z,1018.63
2019-02-14T00:21:14.951Z,1018.68
2019-02-14T00:22:14.947Z,1018.70
2019-02-14T00:23:14.937Z,1018.78
2019-02-14T00:24:14.965Z,1018.75
2019-02-14T00:25:14.915Z,1018.71
2019-02-14T00:26:14.900Z,1018.67
2019-02-14T00:27:14.894Z,1018.57
2019-02-14T00:28:14.883Z,1018.48
2019-02-14T00:29:14.896Z,1018.45
2019-02-14T00:30:14.859Z,1018.49
2019-02-14T00:31:14.851Z,1018.67
2019-02-14T00:32:14.836Z,1018.64
2019-02-14T00:33:14.828Z,1018.69
2019-02-14T00:34:14.843Z,1018.65
2019-02-14T00:35:14.808Z,1018.72
2019-02-14T00:36:14.796Z,1018.53
2019-02-14T00:37:14.787Z,1018.62
2019-02-14T00:38:14.776Z,1018.63
2019-02-14T00:39:14.795Z,1018.70
2019-02-14T00:40:14.769Z,1018.70
2019-02-14T00:41:14.746Z,1018.78
2019-02-14T00:42:14.735Z,1018.82
2019-02-14T00:43:14.723Z,1018.80
2019-02-14T00:44:14.747Z,1018.84
2019-02-14T00:45:14.703Z,1018.88
2019-02-14T00:46:14.695Z,1018.92
2019-02-14T00:47:14.680Z,1018.97
2019-02-14T00:48:14.673Z,1018.97
2019-02-14T00:49:14.686Z,1018.98
2019-02-14T00:50:14.652Z,1018.96
2019-02-14T00:51:14.641Z,1018.94
2019-02-14T00:52:14.637Z,1018.88
2019-02-14T00:53:14.615Z,1018.91
2019-02-14T00:54:14.635Z,1018.87
2019-02-14T00:55:14.597Z,1018.91
2019-02-14T00:56:14.584Z,1018.92
2019-02-14T00:57:14.579Z,1018.87
2019-02-14T00:58:14.563Z,1018.96
2019-02-14T00:59:14.620Z,1018.94
2019-02-14T01:00:14.547Z,1018.96
2019-02-14T01:01:14.532Z,1019.04
2019-02-14T01:02:14.522Z,1019.01
2019-02-14T01:03:14.511Z,1018.93
2019-02-14T01:04:14.528Z,1018.90
2019-02-14T01:05:16.319Z,1018.94
2019-02-14T01:06:14.488Z,1018.82
2019-02-14T01:07:14.470Z,1018.90
2019-02-14T01:08:14.459Z,1018.84
2019-02-14T01:09:14.486Z,1018.85
2019-02-14T01:10:14.435Z,1018.85
2019-02-14T01:11:14.430Z,1018.86
2019-02-14T01:12:14.420Z,1018.79
2019-02-14T01:13:14.411Z,1018.85
2019-02-14T01:14:14.405Z,1018.86
2019-02-14T01:15:14.428Z,1018.76
2019-02-14T01:16:14.402Z,1018.69
2019-02-14T01:17:14.370Z,1018.65
2019-02-14T01:18:14.375Z,1018.69
2019-02-14T01:19:15.495Z,1018.67
2019-02-14T01:20:14.358Z,1018.72
2019-02-14T01:21:14.329Z,1018.71
2019-02-14T01:22:14.311Z,1018.70
2019-02-14T01:23:14.303Z,1018.73
2019-02-14T01:24:14.291Z,1018.71
2019-02-14T01:25:14.307Z,1018.68
2019-02-14T01:26:14.271Z,1018.74
2019-02-14T01:27:14.267Z,1018.74
2019-02-14T01:28:14.247Z,1018.76
2019-02-14T01:29:14.239Z,1018.70
2019-02-14T01:30:14.252Z,1018.56
2019-02-14T01:31:14.216Z,1018.70
2019-02-14T01:32:14.211Z,1018.65
2019-02-14T01:33:14.195Z,1018.59
2019-02-14T01:34:14.185Z,1018.63
2019-02-14T01:35:14.209Z,1018.65
2019-02-14T01:36:14.164Z,1018.59
2019-02-14T01:37:14.153Z,1018.61
2019-02-14T01:38:14.143Z,1018.62
2019-02-14T01:39:14.131Z,1018.66
2019-02-14T01:40:14.155Z,1018.57
2019-02-14T01:41:14.113Z,1018.63
2019-02-14T01:42:14.100Z,1018.67
2019-02-14T01:43:14.092Z,1018.69
2019-02-14T01:44:14.082Z,1018.61
2019-02-14T01:45:14.099Z,1018.64
2019-02-14T01:46:14.059Z,1018.63
2019-02-14T01:47:14.056Z,1018.63
2019-02-14T01:48:14.039Z,1018.52
2019-02-14T01:49:14.027Z,1018.60
2019-02-14T01:50:14.044Z,1018.52
2019-02-14T01:51:14.009Z,1018.53
2019-02-14T01:52:13.995Z,1018.61
2019-02-14T01:53:13.997Z,1018.53
2019-02-14T01:54:13.975Z,1018.56
2019-02-14T01:55:13.992Z,1018.57
2019-02-14T01:56:13.960Z,1018.60
2019-02-14T01:57:13.944Z,1018.54
2019-02-14T01:58:13.938Z,1018.59
2019-02-14T01:59:13.924Z,1018.52
2019-02-14T02:00:13.996Z,1018.47
2019-02-14T02:01:13.903Z,1018.43
2019-02-14T02:02:13.898Z,1018.44
2019-02-14T02:03:13.879Z,1018.47
2019-02-14T02:04:13.867Z,1018.49
2019-02-14T02:05:13.887Z,1018.48
2019-02-14T02:06:13.847Z,1018.47
2019-02-14T02:07:13.844Z,1018.44
2019-02-14T02:08:13.832Z,1018.44
2019-02-14T02:09:13.817Z,1018.42
2019-02-14T02:10:13.836Z,1018.37
2019-02-14T02:11:13.795Z,1018.39
2019-02-14T02:12:13.786Z,1018.41
2019-02-14T02:13:13.780Z,1018.41
2019-02-14T02:14:13.764Z,1018.44
2019-02-14T02:15:13.788Z,1018.48
2019-02-14T02:16:13.745Z,1018.42
2019-02-14T02:17:13.734Z,1018.52
2019-02-14T02:18:13.728Z,1018.46
2019-02-14T02:19:13.724Z,1018.51
2019-02-14T02:20:13.737Z,1018.48
2019-02-14T02:21:13.696Z,1018.50
2019-02-14T02:22:13.682Z,1018.56
2019-02-14T02:23:13.675Z,1018.55
2019-02-14T02:24:13.660Z,1018.57
2019-02-14T02:25:13.675Z,1018.55
2019-02-14T02:26:13.641Z,1018.58
2019-02-14T02:27:13.631Z,1018.63
2019-02-14T02:28:13.644Z,1018.69
2019-02-14T02:29:13.608Z,1018.60
2019-02-14T02:30:14.648Z,1018.60
2019-02-14T02:31:13.592Z,1018.55
2019-02-14T02:32:13.599Z,1018.55
2019-02-14T02:33:13.563Z,1018.55
2019-02-14T02:34:13.557Z,1018.50
2019-02-14T02:35:13.571Z,1018.51
2019-02-14T02:36:13.535Z,1018.53
2019-02-14T02:37:13.530Z,1018.48
2019-02-14T02:38:14.094Z,1018.52
2019-02-14T02:39:13.500Z,1018.51
2019-02-14T02:40:13.520Z,1018.49
2019-02-14T02:41:13.482Z,1018.47
2019-02-14T02:42:13.474Z,1018.48
2019-02-14T02:43:13.473Z,1018.46
2019-02-14T02:44:13.450Z,1018.45
2019-02-14T02:45:13.493Z,1018.40
2019-02-14T02:46:13.429Z,1018.47
2019-02-14T02:47:13.416Z,1018.38
2019-02-14T02:48:13.414Z,1018.45
2019-02-14T02:49:13.397Z,1018.38
2019-02-14T02:50:13.418Z,1018.39
2019-02-14T02:51:13.377Z,1018.30
2019-02-14T02:52:13.363Z,1018.28
2019-02-14T02:53:13.357Z,1018.29
2019-02-14T02:54:13.354Z,1018.33
2019-02-14T02:55:13.372Z,1018.32
2019-02-14T02:56:24.156Z,1018.36
2019-02-14T02:57:13.312Z,1018.42
2019-02-14T02:58:13.304Z,1018.37
2019-02-14T02:59:14.254Z,1018.45
2019-02-14T03:00:13.281Z,1018.37
2019-02-14T03:01:13.296Z,1018.39
2019-02-14T03:02:13.261Z,1018.44
2019-02-14T03:03:13.249Z,1018.45
2019-02-14T03:04:13.244Z,1018.43
2019-02-14T03:05:13.236Z,1018.44
2019-02-14T03:06:13.261Z,1018.42
2019-02-14T03:07:13.259Z,1018.34
2019-02-14T03:08:13.206Z,1018.37
2019-02-14T03:09:13.197Z,1018.32
2019-02-14T03:10:13.177Z,1018.40
2019-02-14T03:11:13.192Z,1018.44
2019-02-14T03:12:13.162Z,1018.39
2019-02-14T03:13:13.146Z,1018.47
2019-02-14T03:14:13.148Z,1018.44
2019-02-14T03:15:13.123Z,1018.48
2019-02-14T03:16:13.139Z,1018.39
2019-02-14T03:17:13.110Z,1018.52
2019-02-14T03:18:13.096Z,1018.45
2019-02-14T03:19:13.080Z,1018.47
2019-02-14T03:20:13.072Z,1018.51
2019-02-14T03:21:13.094Z,1018.58
2019-02-14T03:22:13.056Z,1018.49
2019-02-14T03:23:13.040Z,1018.51
2019-02-14T03:24:13.029Z,1018.54
2019-02-14T03:25:13.025Z,1018.56
2019-02-14T03:26:13.066Z,1018.62
2019-02-14T03:27:13.002Z,1018.55
2019-02-14T03:28:12.989Z,1018.57
2019-02-14T03:29:12.975Z,1018.59
2019-02-14T03:30:12.973Z,1018.53
2019-02-14T03:31:12.988Z,1018.65
2019-02-14T03:32:12.949Z,1018.65
2019-02-14T03:33:12.944Z,1018.64
2019-02-14T03:34:12.925Z,1018.58
2019-02-14T03:35:12.916Z,1018.61
2019-02-14T03:36:18.865Z,1018.54
2019-02-14T03:37:13.891Z,1018.62
2019-02-14T03:38:12.891Z,1018.61
2019-02-14T03:39:12.873Z,1018.70
2019-02-14T03:40:12.864Z,1018.66
2019-02-14T03:41:12.882Z,1018.66
2019-02-14T03:42:12.845Z,1018.66
2019-02-14T03:43:12.847Z,1018.69
2019-02-14T03:44:12.825Z,1018.58
2019-02-14T03:45:12.812Z,1018.63
2019-02-14T03:46:12.828Z,1018.59
2019-02-14T03:47:12.788Z,1018.60
2019-02-14T03:48:12.776Z,1018.71
2019-02-14T03:49:12.772Z,1018.58
2019-02-14T03:50:12.755Z,1018.57
2019-02-14T03:51:12.777Z,1018.57
2019-02-14T03:52:12.739Z,1018.53
2019-02-14T03:53:12.724Z,1018.52
2019-02-14T03:54:12.715Z,1018.58
2019-02-14T03:55:12.716Z,1018.57
2019-02-14T03:56:12.721Z,1018.54
2019-02-14T03:57:12.684Z,1018.60
2019-02-14T03:58:12.676Z,1018.51
2019-02-14T03:59:12.663Z,1018.55
2019-02-14T04:00:12.668Z,1018.49
2019-02-14T04:01:12.666Z,1018.53
2019-02-14T04:02:12.632Z,1018.54
2019-02-14T04:03:12.625Z,1018.55
2019-02-14T04:04:12.615Z,1018.57
2019-02-14T04:05:12.604Z,1018.62
2019-02-14T04:06:12.635Z,1018.68
2019-02-14T04:07:12.582Z,1018.67
2019-02-14T04:08:12.572Z,1018.72
2019-02-14T04:09:12.571Z,1018.73
2019-02-14T04:10:12.560Z,1018.71
2019-02-14T04:11:12.564Z,1018.75
2019-02-14T04:12:12.542Z,1018.71
2019-02-14T04:13:12.523Z,1018.66
2019-02-14T04:14:12.508Z,1018.66
2019-02-14T04:15:12.497Z,1018.60
2019-02-14T04:16:12.513Z,1018.60
2019-02-14T04:17:12.475Z,1018.51
2019-02-14T04:18:12.466Z,1018.57
2019-02-14T04:19:12.460Z,1018.56
2019-02-14T04:20:12.445Z,1018.57
2019-02-14T04:21:12.459Z,1018.66
2019-02-14T04:22:12.429Z,1018.62
2019-02-14T04:23:12.418Z,1018.64
2019-02-14T04:24:12.407Z,1018.68
2019-02-14T04:25:12.402Z,1018.64
2019-02-14T04:26:12.410Z,1018.64
2019-02-14T04:27:12.372Z,1018.63
2019-02-14T04:28:12.359Z,1018.72
2019-02-14T04:29:12.347Z,1018.75
2019-02-14T04:30:12.346Z,1018.69
2019-02-14T04:31:12.367Z,1018.74
2019-02-14T04:32:12.315Z,1018.79
2019-02-14T04:33:12.309Z,1018.68
2019-02-14T04:34:12.295Z,1018.74
2019-02-14T04:35:12.285Z,1018.75
2019-02-14T04:36:12.279Z,1018.86
2019-02-14T04:37:12.292Z,1018.77
2019-02-14T04:38:12.256Z,1018.76
2019-02-14T04:39:12.243Z,1018.77
2019-02-14T04:40:12.235Z,1018.74
2019-02-14T04:41:12.224Z,1018.79
2019-02-14T04:42:12.239Z,1018.72
2019-02-14T04:43:12.200Z,1018.76
2019-02-14T04:44:12.192Z,1018.67
2019-02-14T04:45:12.187Z,1018.84
2019-02-14T04:46:12.172Z,1018.80
2019-02-14T04:47:12.185Z,1018.78
2019-02-14T04:48:12.154Z,1018.80
2019-02-14T04:49:12.142Z,1018.85
2019-02-14T04:50:12.127Z,1018.80
2019-02-14T04:51:12.120Z,1018.76
2019-02-14T04:52:12.132Z,1018.84
2019-02-14T04:53:12.101Z,1018.78
2019-02-14T04:54:12.094Z,1018.77
2019-02-14T04:55:12.081Z,1018.78
2019-02-14T04:56:12.073Z,1018.83
2019-02-14T04:57:12.083Z,1018.88
2019-02-14T04:58:12.043Z,1018.86
2019-02-14T04:59:12.035Z,1018.83
2019-02-14T05:00:12.031Z,1018.71
2019-02-14T05:01:12.014Z,1018.86
2019-02-14T05:02:12.033Z,1018.78
2019-02-14T05:03:11.992Z,1018.72
2019-02-14T05:04:12.007Z,1018.79
2019-02-14T05:05:11.971Z,1018.72
2019-02-14T05:06:11.969Z,1018.82
2019-02-14T05:07:11.981Z,1018.78
2019-02-14T05:08:11.944Z,1018.78
2019-02-14T05:09:11.938Z,1018.79
2019-02-14T05:10:11.920Z,1018.83
2019-02-14T05:11:11.911Z,1018.76
2019-02-14T05:12:11.923Z,1018.77
2019-02-14T05:13:11.886Z,1018.78
2019-02-14T05:14:11.877Z,1018.84
2019-02-14T05:15:11.872Z,1018.75
2019-02-14T05:16:11.861Z,1018.77
2019-02-14T05:17:11.870Z,1018.70
2019-02-14T05:18:11.838Z,1018.81
2019-02-14T05:19:11.842Z,1018.75
2019-02-14T05:20:11.824Z,1018.83
2019-02-14T05:21:11.808Z,1018.85
2019-02-14T05:22:11.831Z,1018.77
2019-02-14T05:23:11.783Z,1018.80
2019-02-14T05:24:11.780Z,1018.88
2019-02-14T05:25:11.763Z,1018.87
2019-02-14T05:26:11.750Z,1018.83
2019-02-14T05:27:11.773Z,1018.82
2019-02-14T05:28:11.731Z,1018.84
2019-02-14T05:29:11.727Z,1018.87
2019-02-14T05:30:11.715Z,1018.90
2019-02-14T05:31:11.701Z,1018.88
2019-02-14T05:32:11.718Z,1018.88
2019-02-14T05:33:11.679Z,1018.90
2019-02-14T05:34:11.667Z,1018.91
2019-02-14T05:35:11.661Z,1018.85
2019-02-14T05:36:11.650Z,1018.93
2019-02-14T05:37:11.661Z,1019.07
2019-02-14T05:38:11.627Z,1018.99
2019-02-14T05:39:11.629Z,1019.05
2019-02-14T05:40:11.606Z,1019.03
2019-02-14T05:41:11.597Z,1019.03
2019-02-14T05:42:11.611Z,1019.06
2019-02-14T05:43:11.576Z,1018.99
2019-02-14T05:44:11.564Z,1019.02
2019-02-14T05:45:11.551Z,1019.03
2019-02-14T05:46:11.543Z,1019.04
2019-02-14T05:47:11.584Z,1019.03
2019-02-14T05:48:11.521Z,1019.05
2019-02-14T05:49:11.512Z,1019.05
2019-02-14T05:50:11.503Z,1018.90
2019-02-14T05:51:11.490Z,1018.92
2019-02-14T05:52:11.479Z,1018.99
2019-02-14T05:53:11.486Z,1019.02
2019-02-14T05:54:11.459Z,1018.93
2019-02-14T05:55:11.452Z,1018.95
2019-02-14T05:56:11.439Z,1019.02
2019-02-14T05:57:11.428Z,1019.00
2019-02-14T05:58:11.450Z,1019.04
2019-02-14T05:59:11.404Z,1019.03
2019-02-14T06:00:11.417Z,1018.97
2019-02-14T06:01:11.388Z,1018.98
2019-02-14T06:02:11.375Z,1019.03
2019-02-14T06:03:11.390Z,1019.09
2019-02-14T06:04:11.357Z,1019.15
2019-02-14T06:05:11.353Z,1019.18
2019-02-14T06:06:11.344Z,1019.15
2019-02-14T06:07:11.327Z,1019.15
2019-02-14T06:08:11.343Z,1019.17
2019-02-14T06:09:11.305Z,1019.19
2019-02-14T06:10:11.290Z,1019.20
2019-02-14T06:11:11.282Z,1019.22
2019-02-14T06:12:11.273Z,1019.34
2019-02-14T06:13:11.290Z,1019.28
2019-02-14T06:14:11.252Z,1019.22
2019-02-14T06:15:11.245Z,1019.21
2019-02-14T06:16:11.231Z,1019.19
2019-02-14T06:17:11.223Z,1019.15
2019-02-14T06:18:11.234Z,1019.16
2019-02-14T06:19:11.202Z,1019.17
2019-02-14T06:20:11.196Z,1019.14
2019-02-14T06:21:11.168Z,1019.16
2019-02-14T06:22:11.176Z,1019.12
2019-02-14T06:23:11.180Z,1019.16
2019-02-14T06:24:11.147Z,1019.15
2019-02-14T06:25:11.138Z,1019.11
2019-02-14T06:26:11.123Z,1019.06
2019-02-14T06:27:11.112Z,1019.13
2019-02-14T06:28:11.127Z,1019.11
2019-02-14T06:29:11.092Z,1019.12
2019-02-14T06:30:11.085Z,1019.14
2019-02-14T06:31:11.074Z,1019.18
2019-02-14T06:32:11.062Z,1019.22
2019-02-14T06:33:11.077Z,1019.26
2019-02-14T06:34:11.039Z,1019.26
2019-02-14T06:35:11.032Z,1019.26
2019-02-14T06:36:11.106Z,1019.40
2019-02-14T06:37:11.008Z,1019.25
2019-02-14T06:38:11.029Z,1019.35
2019-02-14T06:39:10.995Z,1019.35
2019-02-14T06:40:10.983Z,1019.29
2019-02-14T06:41:10.975Z,1019.28
2019-02-14T06:42:10.970Z,1019.26
2019-02-14T06:43:10.977Z,1019.32
2019-02-14T06:44:10.936Z,1019.24
2019-02-14T06:45:10.929Z,1019.19
2019-02-14T06:46:10.915Z,1019.26
2019-02-14T06:47:10.906Z,1019.30
2019-02-14T06:48:10.925Z,1019.26
2019-02-14T06:49:10.887Z,1019.32
2019-02-14T06:50:10.881Z,1019.35
2019-02-14T06:51:10.869Z,1019.37
2019-02-14T06:52:10.860Z,1019.38
2019-02-14T06:53:10.873Z,1019.37
2019-02-14T06:54:10.830Z,1019.42
2019-02-14T06:55:10.831Z,1019.43
2019-02-14T06:56:10.816Z,1019.50
2019-02-14T06:57:10.805Z,1019.52
2019-02-14T06:58:12.799Z,1019.57
2019-02-14T06:59:10.783Z,1019.58
2019-02-14T07:00:10.771Z,1019.55
2019-02-14T07:01:10.765Z,1019.59
2019-02-14T07:02:10.751Z,1019.62
2019-02-14T07:03:10.760Z,1019.62
2019-02-14T07:04:10.735Z,1019.62
2019-02-14T07:05:10.720Z,1019.62
2019-02-14T07:06:10.713Z,1019.64
2019-02-14T07:07:18.199Z,1019.60
2019-02-14T07:08:11.707Z,1019.63
2019-02-14T07:09:10.675Z,1019.70
2019-02-14T07:10:10.669Z,1019.59
2019-02-14T07:11:10.658Z,1019.62
2019-02-14T07:12:10.642Z,1019.61
2019-02-14T07:13:10.658Z,1019.65
2019-02-14T07:14:10.618Z,1019.70
2019-02-14T07:15:10.615Z,1019.74
2019-02-14T07:16:10.602Z,1019.72
2019-02-14T07:17:10.587Z,1019.78
2019-02-14T07:18:10.620Z,1019.78
2019-02-14T07:19:10.567Z,1019.86
2019-02-14T07:20:10.561Z,1019.86
2019-02-14T07:21:10.548Z,1019.84
2019-02-14T07:22:10.541Z,1019.76
2019-02-14T07:23:10.527Z,1019.76
2019-02-14T07:24:10.542Z,1019.73
2019-02-14T07:25:10.507Z,1019.79
2019-02-14T07:26:10.495Z,1019.69
2019-02-14T07:27:10.485Z,1019.70
2019-02-14T07:28:10.499Z,1019.73
2019-02-14T07:29:10.492Z,1019.62
2019-02-14T07:30:10.456Z,1019.62
2019-02-14T07:31:10.444Z,1019.59
2019-02-14T07:32:10.432Z,1019.57
2019-02-14T07:33:10.429Z,1019.61
2019-02-14T07:34:10.454Z,1019.62
2019-02-14T07:35:10.399Z,1019.58
2019-02-14T07:36:10.449Z,1019.56
2019-02-14T07:37:10.379Z,1019.58
2019-02-14T07:38:10.369Z,1019.55
2019-02-14T07:39:11.126Z,1019.63
2019-02-14T07:40:10.354Z,1019.61
2019-02-14T07:41:10.340Z,1019.61
2019-02-14T07:42:10.328Z,1019.65
2019-02-14T07:43:10.323Z,1019.63
2019-02-14T07:44:10.333Z,1019.70
2019-02-14T07:45:10.295Z,1019.70
2019-02-14T07:46:10.284Z,1019.64
2019-02-14T07:47:10.273Z,1019.67
2019-02-14T07:48:10.267Z,1019.66
2019-02-14T07:49:10.279Z,1019.71
2019-02-14T07:50:10.239Z,1019.71
2019-02-14T07:51:10.249Z,1019.68
2019-02-14T07:52:10.224Z,1019.67
2019-02-14T07:53:10.219Z,1019.75
2019-02-14T07:54:10.223Z,1019.64
2019-02-14T07:55:10.265Z,1019.72
2019-02-14T07:56:10.179Z,1019.71
2019-02-14T07:57:10.190Z,1019.71
2019-02-14T07:58:10.162Z,1019.73
2019-02-14T07:59:10.171Z,1019.74
2019-02-14T08:00:10.137Z,1019.78
2019-02-14T08:01:10.128Z,1019.76
2019-02-14T08:02:10.119Z,1019.82
2019-02-14T08:03:10.108Z,1019.85
2019-02-14T08:04:10.120Z,1019.84
2019-02-14T08:05:10.085Z,1019.83
2019-02-14T08:06:10.079Z,1019.78
2019-02-14T08:07:10.065Z,1019.79
2019-02-14T08:08:10.057Z,1019.79
2019-02-14T08:09:10.067Z,1019.71
2019-02-14T08:10:10.035Z,1019.79
2019-02-14T08:11:10.020Z,1019.74
2019-02-14T08:12:10.013Z,1019.80
2019-02-14T08:13:09.999Z,1019.73
2019-02-14T08:14:10.018Z,1019.73
2019-02-14T08:15:09.986Z,1019.70
2019-02-14T08:16:09.978Z,1019.67
2019-02-14T08:17:09.966Z,1019.60
2019-02-14T08:18:09.952Z,1019.67
2019-02-14T08:19:09.965Z,1019.64
2019-02-14T08:20:09.931Z,1019.56
2019-02-14T08:21:09.922Z,1019.61
2019-02-14T08:22:09.908Z,1019.62
2019-02-14T08:23:09.895Z,1019.65
2019-02-14T08:24:09.926Z,1019.61
2019-02-14T08:25:09.874Z,1019.61
2019-02-14T08:26:11.134Z,1019.64
2019-02-14T08:27:09.852Z,1019.63
2019-02-14T08:28:09.848Z,1019.68
2019-02-14T08:29:09.875Z,1019.63
2019-02-14T08:30:09.819Z,1019.62
2019-02-14T08:31:09.813Z,1019.66
2019-02-14T08:32:09.800Z,1019.77
2019-02-14T08:33:09.786Z,1019.72
2019-02-14T08:34:09.779Z,1019.69
2019-02-14T08:35:09.793Z,1019.70
2019-02-14T08:36:09.757Z,1019.65
2019-02-14T08:37:09.743Z,1019.61
2019-02-14T08:38:09.739Z,1019.67
2019-02-14T08:39:09.738Z,1019.62
2019-02-14T08:40:09.745Z,1019.54
2019-02-14T08:41:09.705Z,1019.66
2019-02-14T08:42:09.696Z,1019.55
2019-02-14T08:43:09.682Z,1019.64
2019-02-14T08:44:09.674Z,1019.60
2019-02-14T08:45:09.686Z,1019.62
2019-02-14T08:46:09.652Z,1019.75
2019-02-14T08:47:09.640Z,1019.73
2019-02-14T08:48:09.673Z,1019.76
2019-02-14T08:49:09.624Z,1019.82
2019-02-14T08:50:09.639Z,1019.83
2019-02-14T08:51:09.598Z,1019.80
2019-02-14T08:52:09.591Z,1019.80
2019-02-14T08:53:09.582Z,1019.88
2019-02-14T08:54:09.569Z,1019.83
2019-02-14T08:55:10.170Z,1019.88
2019-02-14T08:56:17.221Z,1019.88
2019-02-14T08:57:09.531Z,1019.87
2019-02-14T08:58:09.520Z,1019.89
2019-02-14T08:59:09.513Z,1019.98
2019-02-14T09:00:09.532Z,1019.95
2019-02-14T09:01:09.492Z,1019.86
2019-02-14T09:02:09.483Z,1019.83
2019-02-14T09:03:09.471Z,1019.92
2019-02-14T09:04:09.456Z,1019.97
2019-02-14T09:05:09.477Z,1019.85
2019-02-14T09:06:09.435Z,1019.81
2019-02-14T09:07:11.297Z,1019.87
2019-02-14T09:08:09.417Z,1019.87
2019-02-14T09:09:09.413Z,1019.99
2019-02-14T09:10:09.418Z,1019.87
2019-02-14T09:11:09.384Z,1019.93
2019-02-14T09:12:09.371Z,1019.92
2019-02-14T09:13:16.981Z,1019.91
2019-02-14T09:14:10.348Z,1019.88
2019-02-14T09:15:09.364Z,1019.90
2019-02-14T09:16:09.342Z,1019.79
2019-02-14T09:17:09.324Z,1019.86
2019-02-14T09:18:09.318Z,1019.80
2019-02-14T09:19:09.312Z,1019.77
2019-02-14T09:20:09.311Z,1019.70
2019-02-14T09:21:09.277Z,1019.77
2019-02-14T09:22:09.269Z,1019.74
2019-02-14T09:23:09.257Z,1019.75
2019-02-14T09:24:09.247Z,1019.73
2019-02-14T09:25:09.259Z,1019.63
2019-02-14T09:26:09.226Z,1019.75
2019-02-14T09:27:09.218Z,1019.61
2019-02-14T09:28:09.203Z,1019.63
2019-02-14T09:29:09.199Z,1019.68
2019-02-14T09:30:09.207Z,1019.68
2019-02-14T09:31:09.171Z,1019.63
2019-02-14T09:32:09.167Z,1019.71
2019-02-14T09:33:09.152Z,1019.73
2019-02-14T09:34:09.144Z,1019.74
2019-02-14T09:35:09.157Z,1019.78
2019-02-14T09:36:09.124Z,1019.70
2019-02-14T09:37:09.112Z,1019.83
2019-02-14T09:38:09.105Z,1019.80
2019-02-14T09:39:09.092Z,1019.86
2019-02-14T09:40:09.119Z,1019.83
2019-02-14T09:41:09.077Z,1019.92
2019-02-14T09:42:09.062Z,1019.88
2019-02-14T09:43:09.051Z,1019.93
2019-02-14T09:44:09.041Z,1019.99
2019-02-14T09:45:09.060Z,1019.91
2019-02-14T09:46:09.017Z,1019.98
2019-02-14T09:47:09.022Z,1019.97
2019-02-14T09:48:09.001Z,1020.01
2019-02-14T09:49:08.998Z,1019.93
2019-02-14T09:50:09.010Z,1019.95
2019-02-14T09:51:08.968Z,1019.94
2019-02-14T09:52:08.958Z,1019.90
2019-02-14T09:53:08.946Z,1019.92
2019-02-14T09:54:08.940Z,1019.97
2019-02-14T09:55:08.951Z,1019.89
2019-02-14T09:56:08.909Z,1019.90
2019-02-14T09:57:08.907Z,1019.92
2019-02-14T09:58:08.891Z,1019.82
2019-02-14T09:59:08.885Z,1019.92
2019-02-14T10:00:08.888Z,1019.91
2019-02-14T10:01:08.872Z,1019.92
2019-02-14T10:02:08.846Z,1019.94
2019-02-14T10:03:08.844Z,1019.96
2019-02-14T10:04:08.831Z,1019.88
2019-02-14T10:05:08.840Z,1019.85
2019-02-14T10:06:08.804Z,1019.88
2019-02-14T10:07:08.791Z,1019.91
2019-02-14T10:08:12.784Z,1019.88
2019-02-14T10:09:08.781Z,1019.82
2019-02-14T10:10:08.796Z,1019.85
2019-02-14T10:11:08.751Z,1019.83
2019-02-14T10:12:08.746Z,1019.86
2019-02-14T10:13:08.732Z,1019.85
2019-02-14T10:14:08.720Z,1019.77
2019-02-14T10:15:08.739Z,1019.71
2019-02-14T10:16:08.696Z,1019.86
2019-02-14T10:17:08.692Z,1019.80
2019-02-14T10:18:08.674Z,1019.78
2019-02-14T10:19:08.666Z,1019.87
2019-02-14T10:20:08.680Z,1019.83
2019-02-14T10:21:08.644Z,1019.78
2019-02-14T10:22:08.636Z,1019.72
2019-02-14T10:23:08.631Z,1019.76
2019-02-14T10:24:08.607Z,1019.70
2019-02-14T10:25:08.647Z,1019.65
2019-02-14T10:26:08.591Z,1019.76
2019-02-14T10:27:08.579Z,1019.76
2019-02-14T10:28:08.574Z,1019.72
2019-02-14T10:29:08.557Z,1019.80
2019-02-14T10:30:08.603Z,1019.71
2019-02-14T10:31:08.542Z,1019.75
2019-02-14T10:32:08.524Z,1019.75
2019-02-14T10:33:08.515Z,1019.63
2019-02-14T10:34:08.518Z,1019.69
2019-02-14T10:35:08.521Z,1019.68
2019-02-14T10:36:08.483Z,1019.66
2019-02-14T10:37:08.493Z,1019.68
2019-02-14T10:38:08.460Z,1019.65
2019-02-14T10:39:08.448Z,1019.63
2019-02-14T10:40:08.472Z,1019.67
2019-02-14T10:41:08.493Z,1019.62
2019-02-14T10:42:08.421Z,1019.66
2019-02-14T10:43:08.408Z,1019.72
2019-02-14T10:44:08.396Z,1019.72
2019-02-14T10:45:08.413Z,1019.71
2019-02-14T10:46:08.384Z,1019.75
2019-02-14T10:47:08.367Z,1019.72
2019-02-14T10:48:08.359Z,1019.68
2019-02-14T10:49:08.348Z,1019.67
2019-02-14T10:50:08.398Z,1019.73
2019-02-14T10:51:08.347Z,1019.70
2019-02-14T10:52:08.319Z,1019.63
2019-02-14T10:53:08.309Z,1019.69
2019-02-14T10:54:08.292Z,1019.77
2019-02-14T10:55:08.330Z,1019.75
2019-02-14T10:56:08.330Z,1019.70
2019-02-14T10:57:08.262Z,1019.74
2019-02-14T10:58:08.259Z,1019.71
2019-02-14T10:59:08.240Z,1019.74
2019-02-14T11:00:08.228Z,1019.81
2019-02-14T11:01:08.251Z,1019.78
2019-02-14T11:02:08.204Z,1019.72
2019-02-14T11:03:08.200Z,1019.71
2019-02-14T11:04:08.183Z,1019.74
2019-02-14T11:05:08.179Z,1019.67
2019-02-14T11:06:08.189Z,1019.62
2019-02-14T11:07:08.156Z,1019.62
2019-02-14T11:08:08.149Z,1019.62
2019-02-14T11:09:08.138Z,1019.62
2019-02-14T11:10:08.128Z,1019.59
2019-02-14T11:11:08.136Z,1019.62
2019-02-14T11:12:08.116Z,1019.60
2019-02-14T11:13:08.095Z,1019.66
2019-02-14T11:14:08.083Z,1019.65
2019-02-14T11:15:09.106Z,1019.56
2019-02-14T11:16:09.698Z,1019.55
2019-02-14T11:17:08.051Z,1019.53
2019-02-14T11:18:08.047Z,1019.55
2019-02-14T11:19:08.029Z,1019.53
2019-02-14T11:20:08.018Z,1019.49
2019-02-14T11:21:08.055Z,1019.49
2019-02-14T11:22:08.001Z,1019.57
2019-02-14T11:23:07.987Z,1019.51
2019-02-14T11:24:07.974Z,1019.41
2019-02-14T11:25:07.962Z,1019.44
2019-02-14T11:26:08.697Z,1019.44
2019-02-14T11:27:07.939Z,1019.45
2019-02-14T11:28:07.929Z,1019.50
2019-02-14T11:29:07.920Z,1019.55
2019-02-14T11:30:07.908Z,1019.51
2019-02-14T11:31:07.927Z,1019.57
2019-02-14T11:32:07.887Z,1019.57
2019-02-14T11:33:07.877Z,1019.59
2019-02-14T11:34:07.865Z,1019.47
2019-02-14T11:35:07.859Z,1019.57
2019-02-14T11:36:07.868Z,1019.51
2019-02-14T11:37:07.839Z,1019.50
2019-02-14T11:38:07.826Z,1019.51
2019-02-14T11:39:07.812Z,1019.59
2019-02-14T11:40:07.804Z,1019.58
2019-02-14T11:41:07.817Z,1019.62
2019-02-14T11:42:07.780Z,1019.60
2019-02-14T11:43:07.773Z,1019.61
2019-02-14T11:44:07.765Z,1019.62
2019-02-14T11:45:07.752Z,1019.59
2019-02-14T11:46:07.763Z,1019.60
2019-02-14T11:47:08.200Z,1019.55
2019-02-14T11:48:07.741Z,1019.54
2019-02-14T11:49:07.712Z,1019.56
2019-02-14T11:50:07.704Z,1019.55
2019-02-14T11:51:07.723Z,1019.51
2019-02-14T11:52:07.687Z,1019.50
2019-02-14T11:53:13.929Z,1019.50
2019-02-14T11:54:08.658Z,1019.51
2019-02-14T11:55:07.645Z,1019.52
2019-02-14T11:56:07.661Z,1019.49
2019-02-14T11:57:07.621Z,1019.53
2019-02-14T11:58:07.612Z,1019.45
2019-02-14T11:59:07.601Z,1019.47
2019-02-14T12:00:07.593Z,1019.44
2019-02-14T12:01:07.605Z,1019.53
2019-02-14T12:02:07.568Z,1019.52
2019-02-14T12:03:07.558Z,1019.50
2019-02-14T12:04:07.553Z,1019.48
2019-02-14T12:05:07.536Z,1019.47